createdAt,value
2023-03-28T00:02:00.312Z,90.38
2023-03-28T00:04:05.452Z,91.37
2023-03-28T00:06:11.750Z,91.03
2023-03-28T00:08:15.860Z,91.88
2023-03-28T00:10:20.195Z,91.67
2023-03-28T00:12:25.326Z,91.75
2023-03-28T00:14:29.211Z,91.59
2023-03-28T00:16:36.604Z,91.50
2023-03-28T00:18:40.922Z,91.97
2023-03-28T00:20:45.247Z,91.70
2023-03-28T00:22:49.873Z,91.66
2023-03-28T00:24:53.946Z,91.71
2023-03-28T00:27:00.989Z,92.26
2023-03-28T00:29:06.636Z,91.88
2023-03-28T00:31:10.642Z,92.18
2023-03-28T00:33:16.343Z,91.69
2023-03-28T00:35:20.284Z,91.63
2023-03-28T00:37:24.546Z,91.99
2023-03-28T00:39:29.804Z,92.25
2023-03-28T00:41:37.028Z,92.39
2023-03-28T00:43:42.328Z,91.67
2023-03-28T00:45:53.147Z,92.05
2023-03-28T00:48:06.941Z,91.97
2023-03-28T00:50:25.466Z,92.10
2023-03-28T00:52:33.806Z,92.42
2023-03-28T00:54:40.576Z,92.83
2023-03-28T00:56:47.540Z,93.55
2023-03-28T00:58:52.934Z,93.12
2023-03-28T01:00:58.282Z,93.20
2023-03-28T01:03:03.785Z,93.42
2023-03-28T01:05:09.213Z,93.17
2023-03-28T01:07:16.477Z,93.07
2023-03-28T01:09:21.970Z,93.29
2023-03-28T01:11:28.481Z,93.06
2023-03-28T01:13:35.259Z,92.71
2023-03-28T01:15:40.058Z,92.68
2023-03-28T01:17:46.567Z,92.83
2023-03-28T01:20:06.551Z,92.12
2023-03-28T01:22:40.598Z,92.22
2023-03-28T01:25:25.787Z,91.96
2023-03-28T01:27:38.588Z,91.89
2023-03-28T01:30:14.403Z,91.60
2023-03-28T01:33:32.067Z,91.33
2023-03-28T01:36:07.365Z,91.98
2023-03-28T01:38:18.522Z,91.20
2023-03-28T01:40:34.938Z,91.09
2023-03-28T01:42:53.220Z,91.12
2023-03-28T01:45:08.981Z,90.89
2023-03-28T01:47:21.408Z,90.35
2023-03-28T01:49:34.564Z,90.86
2023-03-28T01:51:52.162Z,91.10
2023-03-28T01:54:01.906Z,90.44
2023-03-28T01:56:12.463Z,90.96
2023-03-28T01:58:22.205Z,91.06
2023-03-28T02:00:33.283Z,90.67
2023-03-28T02:02:49.739Z,91.19
2023-03-28T02:05:10.729Z,91.76
2023-03-28T02:07:24.779Z,91.83
2023-03-28T02:09:46.314Z,91.24
2023-03-28T02:12:15.246Z,91.86
2023-03-28T02:14:42.579Z,92.04
2023-03-28T02:17:15.574Z,92.99
2023-03-28T02:19:40.193Z,93.24
2023-03-28T02:22:04.608Z,92.80
2023-03-28T02:24:20.202Z,93.24
2023-03-28T02:26:49.329Z,93.79
2023-03-28T02:29:14.179Z,94.32
2023-03-28T02:31:33.634Z,93.98
2023-03-28T02:33:41.122Z,94.48
2023-03-28T02:35:55.615Z,94.84
2023-03-28T02:38:09.000Z,95.19
2023-03-28T02:40:31.553Z,95.93
2023-03-28T02:43:14.558Z,96.79
2023-03-28T02:45:50.642Z,96.58
2023-03-28T02:48:06.633Z,96.52
2023-03-28T02:50:21.063Z,97.48
2023-03-28T02:52:37.102Z,97.19
2023-03-28T02:54:47.821Z,97.18
2023-03-28T02:57:18.424Z,97.52
2023-03-28T02:59:35.977Z,97.09
2023-03-28T03:01:41.089Z,97.00
2023-03-28T03:03:45.986Z,97.88
2023-03-28T03:05:49.480Z,97.59
2023-03-28T03:07:52.822Z,97.68
2023-03-28T03:09:56.242Z,98.06
2023-03-28T03:11:59.925Z,97.89
2023-03-28T03:14:03.187Z,97.96
2023-03-28T03:16:09.232Z,97.57
2023-03-28T03:18:13.163Z,98.07
2023-03-28T03:20:16.515Z,98.14
2023-03-28T03:22:21.246Z,98.33
2023-03-28T03:24:28.459Z,97.97
2023-03-28T03:26:36.273Z,97.81
2023-03-28T03:28:41.224Z,97.25
2023-03-28T03:30:45.977Z,96.84
2023-03-28T03:32:50.718Z,97.04
2023-03-28T03:34:54.368Z,96.53
2023-03-28T03:36:57.711Z,96.50
2023-03-28T03:39:01.644Z,96.00
2023-03-28T03:41:06.668Z,96.35
2023-03-28T03:43:09.997Z,95.68
2023-03-28T03:45:15.933Z,96.08
2023-03-28T03:47:20.183Z,95.18
2023-03-28T03:49:27.697Z,94.39
2023-03-28T03:51:31.108Z,93.71
2023-03-28T03:53:35.882Z,93.58
2023-03-28T03:55:48.982Z,92.96
2023-03-28T03:57:52.707Z,93.47
2023-03-28T03:59:57.349Z,92.92
2023-03-28T04:02:03.299Z,93.67
2023-03-28T04:04:18.793Z,93.49
2023-03-28T04:06:42.182Z,93.71
2023-03-28T04:08:46.731Z,93.61
2023-03-28T04:10:57.423Z,94.16
2023-03-28T04:13:01.209Z,94.68
2023-03-28T04:15:05.424Z,95.01
2023-03-28T04:17:08.753Z,95.85
2023-03-28T04:19:14.001Z,96.25
2023-03-28T04:21:20.685Z,96.65
2023-03-28T04:23:26.072Z,96.71
2023-03-28T04:25:31.573Z,96.67
2023-03-28T04:27:42.036Z,96.94
2023-03-28T04:29:45.337Z,97.16
2023-03-28T04:32:07.814Z,97.22
2023-03-28T04:34:30.917Z,97.05
2023-03-28T04:36:43.875Z,96.67
2023-03-28T04:38:49.292Z,96.66
2023-03-28T04:41:16.994Z,96.64
2023-03-28T04:43:33.079Z,96.97
2023-03-28T04:45:37.215Z,97.06
2023-03-28T04:47:50.025Z,97.57
2023-03-28T04:49:55.444Z,98.11
2023-03-28T04:51:58.849Z,98.51
2023-03-28T04:54:03.727Z,98.80
2023-03-28T04:56:22.305Z,98.68
2023-03-28T04:58:26.562Z,98.76
2023-03-28T05:00:30.749Z,98.60
2023-03-28T05:02:40.025Z,98.81
2023-03-28T05:04:44.365Z,99.08
2023-03-28T05:06:51.741Z,99.39
2023-03-28T05:08:55.073Z,99.97
2023-03-28T05:11:04.531Z,99.71
2023-03-28T05:13:08.555Z,99.74
2023-03-28T05:15:23.004Z,99.84
2023-03-28T05:17:37.610Z,99.78
2023-03-28T05:19:53.597Z,100.00
2023-03-28T05:21:59.390Z,100.00
2023-03-28T05:24:02.909Z,100.00
2023-03-28T05:26:08.246Z,100.00
2023-03-28T05:28:14.586Z,100.00
2023-03-28T05:30:26.438Z,100.00
2023-03-28T05:32:32.191Z,100.00
2023-03-28T05:34:36.220Z,100.00
2023-03-28T05:36:40.510Z,100.00
2023-03-28T05:38:54.556Z,100.00
2023-03-28T05:40:58.788Z,100.00
2023-03-28T05:43:03.898Z,100.00
2023-03-28T05:45:09.345Z,99.44
2023-03-28T05:47:31.524Z,99.49
2023-03-28T05:49:35.144Z,99.48
2023-03-28T05:51:38.547Z,98.51
2023-03-28T05:53:41.971Z,96.65
2023-03-28T05:55:46.848Z,96.87
2023-03-28T05:57:50.149Z,96.21
2023-03-28T05:59:56.943Z,95.39
2023-03-28T06:02:01.727Z,96.00
2023-03-28T06:04:05.797Z,95.86
2023-03-28T06:06:09.912Z,95.87
2023-03-28T06:08:13.444Z,95.64
2023-03-28T06:10:17.182Z,95.24
2023-03-28T06:12:32.463Z,95.39
2023-03-28T06:14:37.884Z,95.38
2023-03-28T06:16:45.031Z,95.61
2023-03-28T06:18:48.481Z,96.12
2023-03-28T06:20:51.913Z,95.92
2023-03-28T06:22:55.180Z,96.22
2023-03-28T06:24:58.716Z,96.38
2023-03-28T06:27:08.477Z,96.52
2023-03-28T06:29:16.294Z,96.59
2023-03-28T06:31:20.998Z,96.95
2023-03-28T06:33:26.939Z,97.89
2023-03-28T06:35:30.345Z,98.42
2023-03-28T06:37:33.679Z,98.81
2023-03-28T06:39:43.393Z,99.01
2023-03-28T06:41:46.659Z,100.00
2023-03-28T06:43:49.992Z,100.00
2023-03-28T06:46:12.030Z,100.00
2023-03-28T06:48:20.574Z,100.00
2023-03-28T06:50:57.427Z,100.00
2023-03-28T06:53:01.471Z,100.00
2023-03-28T06:55:05.755Z,100.00
2023-03-28T06:57:09.184Z,100.00
2023-03-28T06:59:16.124Z,100.00
2023-03-28T07:01:22.119Z,100.00
2023-03-28T07:03:30.730Z,100.00
2023-03-28T07:05:39.508Z,100.00
2023-03-28T07:07:44.559Z,100.00
2023-03-28T07:09:49.999Z,100.00
2023-03-28T07:11:53.599Z,100.00
2023-03-28T07:13:59.133Z,100.00
2023-03-28T07:16:05.452Z,100.00
2023-03-28T07:18:10.731Z,100.00
2023-03-28T07:20:15.154Z,100.00
2023-03-28T07:22:18.963Z,100.00
2023-03-28T07:24:24.427Z,100.00
2023-03-28T07:26:48.244Z,100.00
2023-03-28T07:28:53.972Z,100.00
2023-03-28T07:30:57.691Z,100.00
2023-03-28T07:33:14.149Z,100.00
2023-03-28T07:35:22.843Z,100.00
2023-03-28T07:37:28.390Z,100.00
2023-03-28T07:39:54.803Z,100.00
2023-03-28T07:42:01.007Z,100.00
2023-03-28T07:44:05.498Z,100.00
2023-03-28T07:46:10.976Z,100.00
2023-03-28T07:48:14.773Z,100.00
2023-03-28T07:50:19.371Z,100.00
2023-03-28T07:52:23.052Z,100.00
2023-03-28T07:54:27.661Z,100.00
2023-03-28T07:56:33.922Z,100.00
2023-03-28T07:59:02.165Z,100.00
2023-03-28T08:01:07.466Z,100.00
2023-03-28T08:03:21.076Z,100.00
2023-03-28T08:05:26.615Z,100.00
2023-03-28T08:07:30.459Z,100.00
2023-03-28T08:09:34.178Z,100.00
2023-03-28T08:11:59.354Z,100.00
2023-03-28T08:14:02.729Z,100.00
2023-03-28T08:16:08.167Z,100.00
2023-03-28T08:18:13.122Z,100.00
2023-03-28T08:20:17.119Z,100.00
2023-03-28T08:22:35.219Z,100.00
2023-03-28T08:25:02.034Z,100.00
2023-03-28T08:27:07.844Z,100.00
2023-03-28T08:29:11.796Z,100.00
2023-03-28T08:31:17.595Z,100.00
2023-03-28T08:33:27.468Z,100.00
2023-03-28T08:35:31.301Z,100.00
2023-03-28T08:37:38.719Z,100.00
2023-03-28T08:39:43.121Z,100.00
2023-03-28T08:42:26.431Z,100.00
2023-03-28T08:44:51.799Z,100.00
2023-03-28T08:46:59.544Z,99.96
2023-03-28T08:49:12.028Z,99.78
2023-03-28T08:51:22.084Z,100.00
2023-03-28T08:53:34.477Z,100.00
2023-03-28T08:55:42.219Z,99.87
2023-03-28T08:57:48.378Z,99.28
2023-03-28T09:00:01.528Z,99.69
2023-03-28T09:02:17.336Z,99.44
2023-03-28T09:04:27.309Z,98.76
2023-03-28T09:06:46.224Z,98.29
2023-03-28T09:09:14.878Z,98.03
2023-03-28T09:11:32.302Z,98.01
2023-03-28T09:13:44.426Z,97.49
2023-03-28T09:16:04.354Z,97.27
2023-03-28T09:18:31.066Z,97.43
2023-03-28T09:20:43.318Z,96.71
2023-03-28T09:23:15.623Z,96.02
2023-03-28T09:25:45.129Z,95.16
2023-03-28T09:27:57.928Z,95.01
2023-03-28T09:30:19.063Z,94.14
2023-03-28T09:32:27.889Z,92.72
2023-03-28T09:34:39.799Z,92.04
2023-03-28T09:36:49.683Z,91.65
2023-03-28T09:39:01.049Z,90.99
2023-03-28T09:41:21.637Z,90.27
2023-03-28T09:43:32.785Z,88.89
2023-03-28T09:46:03.638Z,88.28
2023-03-28T09:48:35.780Z,86.56
2023-03-28T09:50:43.338Z,85.80
2023-03-28T09:52:51.325Z,85.60
2023-03-28T09:54:55.345Z,84.24
2023-03-28T09:57:02.718Z,84.25
2023-03-28T09:59:33.327Z,84.44
2023-03-28T10:01:48.359Z,83.25
2023-03-28T10:04:14.722Z,83.44
2023-03-28T10:06:45.840Z,82.44
2023-03-28T10:08:49.440Z,82.04
2023-03-28T10:11:07.062Z,82.10
2023-03-28T10:13:12.194Z,80.51
2023-03-28T10:15:43.474Z,79.69
2023-03-28T10:17:57.518Z,79.57
2023-03-28T10:20:17.206Z,79.25
2023-03-28T10:22:26.678Z,79.80
2023-03-28T10:24:33.028Z,79.16
2023-03-28T10:26:38.883Z,78.68
2023-03-28T10:28:44.703Z,77.55
2023-03-28T10:30:55.124Z,79.21
2023-03-28T10:33:22.322Z,80.14
2023-03-28T10:35:58.830Z,79.60
2023-03-28T10:38:04.938Z,80.28
2023-03-28T10:40:54.254Z,80.91
2023-03-28T10:43:14.748Z,81.16
2023-03-28T10:45:57.029Z,83.21
2023-03-28T10:48:16.672Z,85.46
2023-03-28T10:50:30.968Z,87.11
2023-03-28T10:52:39.795Z,87.98
2023-03-28T10:54:54.008Z,90.29
2023-03-28T10:57:20.920Z,89.83
2023-03-28T10:59:47.310Z,89.69
2023-03-28T11:02:08.906Z,89.25
2023-03-28T11:04:25.603Z,88.84
2023-03-28T11:06:36.475Z,88.37
2023-03-28T11:08:55.072Z,89.63
2023-03-28T11:11:14.509Z,88.86
2023-03-28T11:13:31.916Z,87.00
2023-03-28T11:15:41.841Z,86.74
2023-03-28T11:18:05.123Z,84.32
2023-03-28T11:20:31.075Z,83.29
2023-03-28T11:22:47.706Z,82.78
2023-03-28T11:25:09.818Z,83.17
2023-03-28T11:27:44.252Z,83.34
2023-03-28T11:29:56.546Z,83.80
2023-03-28T11:32:14.599Z,83.95
2023-03-28T11:34:25.866Z,83.78
2023-03-28T11:36:37.640Z,83.55
2023-03-28T11:38:44.374Z,83.77
2023-03-28T11:40:54.223Z,84.18
2023-03-28T11:43:13.714Z,83.94
2023-03-28T11:45:41.990Z,83.66
2023-03-28T11:48:03.849Z,84.11
2023-03-28T11:50:16.554Z,83.70
2023-03-28T11:52:47.646Z,83.43
2023-03-28T11:54:59.737Z,83.75
2023-03-28T11:57:08.272Z,84.21
2023-03-28T11:59:30.671Z,83.75
2023-03-28T12:01:36.796Z,84.03
2023-03-28T12:03:59.970Z,83.62
2023-03-28T12:06:10.458Z,83.66
2023-03-28T12:08:22.042Z,83.81
2023-03-28T12:10:28.647Z,83.88
2023-03-28T12:12:39.687Z,83.10
2023-03-28T12:14:52.471Z,82.94
2023-03-28T12:17:18.698Z,82.83
2023-03-28T12:19:34.101Z,83.13
2023-03-28T12:21:45.894Z,83.10
2023-03-28T12:24:05.943Z,83.18
2023-03-28T12:26:32.290Z,82.76
2023-03-28T12:28:42.366Z,83.09
2023-03-28T12:30:52.004Z,82.45
2023-03-28T12:33:06.796Z,82.87
2023-03-28T12:35:22.804Z,82.67
2023-03-28T12:37:50.960Z,83.02
2023-03-28T12:40:00.737Z,82.98
2023-03-28T12:42:10.306Z,82.75
2023-03-28T12:44:21.030Z,82.99
2023-03-28T12:46:31.059Z,83.19
2023-03-28T12:48:39.043Z,83.14
2023-03-28T12:50:48.831Z,83.18
2023-03-28T12:52:53.466Z,84.00
2023-03-28T12:55:31.693Z,83.69
2023-03-28T12:57:47.259Z,83.54
2023-03-28T13:00:26.389Z,84.56
2023-03-28T13:02:56.946Z,84.77
2023-03-28T13:05:12.431Z,84.52
2023-03-28T13:07:25.385Z,84.81
2023-03-28T13:09:43.674Z,84.47
2023-03-28T13:11:57.900Z,84.75
2023-03-28T13:14:10.510Z,84.35
2023-03-28T13:16:17.552Z,84.43
2023-03-28T13:18:34.074Z,84.61
2023-03-28T13:20:47.264Z,84.48
2023-03-28T13:22:53.965Z,84.67
2023-03-28T13:25:28.782Z,84.12
2023-03-28T13:27:35.723Z,84.15
2023-03-28T13:29:50.423Z,83.29
2023-03-28T13:32:06.921Z,83.20
2023-03-28T13:34:22.917Z,82.74
2023-03-28T13:36:33.788Z,82.91
2023-03-28T13:38:47.070Z,83.06
2023-03-28T13:40:54.808Z,83.69
2023-03-28T13:43:01.452Z,82.26
2023-03-28T13:45:16.344Z,82.25
2023-03-28T13:47:28.226Z,82.16
2023-03-28T13:49:43.257Z,81.97
2023-03-28T13:51:50.549Z,81.70
2023-03-28T13:53:54.637Z,81.74
2023-03-28T13:56:19.346Z,82.01
2023-03-28T13:58:25.227Z,82.02
2023-03-28T14:00:32.603Z,81.06
2023-03-28T14:02:43.799Z,81.38
2023-03-28T14:04:54.176Z,81.57
2023-03-28T14:06:58.341Z,81.96
2023-03-28T14:09:02.843Z,81.68
2023-03-28T14:11:07.622Z,81.01
2023-03-28T14:13:16.305Z,81.05
2023-03-28T14:15:26.050Z,80.47
2023-03-28T14:17:34.125Z,80.37
2023-03-28T14:19:41.498Z,80.11
2023-03-28T14:21:45.993Z,80.61
2023-03-28T14:23:59.818Z,80.29
2023-03-28T14:26:06.395Z,80.47
2023-03-28T14:28:10.428Z,79.43
2023-03-28T14:30:23.291Z,79.43
2023-03-28T14:32:30.692Z,79.50
2023-03-28T14:34:38.887Z,78.71
2023-03-28T14:36:59.358Z,78.86
2023-03-28T14:39:13.823Z,78.96
2023-03-28T14:41:21.840Z,79.41
2023-03-28T14:43:30.549Z,79.53
2023-03-28T14:45:40.194Z,79.59
2023-03-28T14:47:45.253Z,79.52
2023-03-28T14:49:48.829Z,79.41
2023-03-28T14:51:57.071Z,79.80
2023-03-28T14:54:00.807Z,79.33
2023-03-28T14:56:09.136Z,79.38
2023-03-28T14:58:15.020Z,79.49
2023-03-28T15:00:23.596Z,79.18
2023-03-28T15:02:33.705Z,79.65
2023-03-28T15:04:38.148Z,79.48
2023-03-28T15:06:41.986Z,79.59
2023-03-28T15:08:46.947Z,79.52
2023-03-28T15:10:54.352Z,79.30
2023-03-28T15:13:06.278Z,79.25
2023-03-28T15:15:17.095Z,78.89
2023-03-28T15:17:25.154Z,79.26
2023-03-28T15:19:36.578Z,79.63
2023-03-28T15:21:43.260Z,80.19
2023-03-28T15:23:52.177Z,80.34
2023-03-28T15:25:57.216Z,80.84
2023-03-28T15:28:05.073Z,80.84
2023-03-28T15:30:17.511Z,80.98
2023-03-28T15:32:23.433Z,81.12
2023-03-28T15:34:28.906Z,81.69
2023-03-28T15:36:35.807Z,82.01
2023-03-28T15:38:41.506Z,82.95
2023-03-28T15:40:47.671Z,83.49
2023-03-28T15:42:53.382Z,84.18
2023-03-28T15:45:17.295Z,83.97
2023-03-28T15:47:25.908Z,83.71
2023-03-28T15:49:36.236Z,84.51
2023-03-28T15:51:48.942Z,84.40
2023-03-28T15:53:53.860Z,84.75
2023-03-28T15:56:06.283Z,84.82
2023-03-28T15:58:14.178Z,85.14
2023-03-28T16:00:42.859Z,85.14
2023-03-28T16:02:47.278Z,85.90
2023-03-28T16:05:04.914Z,85.59
2023-03-28T16:07:15.610Z,85.75
2023-03-28T16:09:21.223Z,85.64
2023-03-28T16:11:27.817Z,85.49
2023-03-28T16:13:58.084Z,86.14
2023-03-28T16:16:31.495Z,86.27
2023-03-28T16:18:58.312Z,85.92
2023-03-28T16:21:03.118Z,86.27
2023-03-28T16:23:08.236Z,86.18
2023-03-28T16:25:12.625Z,86.52
2023-03-28T16:27:16.386Z,86.04
2023-03-28T16:29:20.357Z,86.06
2023-03-28T16:31:24.136Z,86.23
2023-03-28T16:33:27.822Z,86.09
2023-03-28T16:35:34.092Z,85.83
2023-03-28T16:37:39.265Z,86.17
2023-03-28T16:39:46.572Z,86.72
2023-03-28T16:41:50.332Z,86.67
2023-03-28T16:43:53.774Z,86.38
2023-03-28T16:45:57.591Z,87.03
2023-03-28T16:48:02.181Z,87.01
2023-03-28T16:50:09.253Z,86.54
2023-03-28T16:52:13.884Z,86.77
2023-03-28T16:54:18.306Z,86.90
2023-03-28T16:56:27.044Z,86.59
2023-03-28T16:58:31.335Z,86.73
2023-03-28T17:00:36.524Z,86.89
2023-03-28T17:02:40.275Z,87.17
2023-03-28T17:04:43.929Z,87.27
2023-03-28T17:06:49.420Z,87.26
2023-03-28T17:08:55.442Z,86.87
2023-03-28T17:11:02.741Z,87.00
2023-03-28T17:13:08.742Z,87.05
2023-03-28T17:15:13.648Z,87.29
2023-03-28T17:17:17.784Z,86.93
2023-03-28T17:19:23.269Z,87.48
2023-03-28T17:21:27.008Z,87.64
2023-03-28T17:23:31.068Z,87.99
2023-03-28T17:25:48.174Z,88.03
2023-03-28T17:27:56.164Z,88.44
2023-03-28T17:30:01.862Z,89.12
2023-03-28T17:32:06.572Z,88.97
2023-03-28T17:34:11.533Z,89.40
2023-03-28T17:36:20.952Z,89.56
2023-03-28T17:38:25.929Z,90.17
2023-03-28T17:40:30.322Z,89.97
2023-03-28T17:42:34.272Z,90.79
2023-03-28T17:44:38.230Z,90.38
2023-03-28T17:46:44.802Z,90.66
2023-03-28T17:48:48.857Z,90.65
2023-03-28T17:50:56.188Z,91.27
2023-03-28T17:53:00.877Z,90.65
2023-03-28T17:55:06.630Z,91.49
2023-03-28T17:57:10.539Z,91.23
2023-03-28T17:59:15.209Z,92.10
2023-03-28T18:01:19.935Z,91.94
2023-03-28T18:03:25.369Z,92.08
2023-03-28T18:05:54.673Z,92.35
2023-03-28T18:07:58.597Z,92.46
2023-03-28T18:10:04.184Z,92.80
2023-03-28T18:12:08.251Z,92.82
2023-03-28T18:14:12.700Z,93.00
2023-03-28T18:16:19.657Z,93.00
2023-03-28T18:18:25.216Z,93.50
2023-03-28T18:20:29.292Z,93.56
2023-03-28T18:22:33.202Z,93.57
2023-03-28T18:24:37.411Z,93.14
2023-03-28T18:26:41.471Z,93.59
2023-03-28T18:28:45.651Z,93.08
2023-03-28T18:30:49.685Z,93.31
2023-03-28T18:32:54.533Z,92.81
2023-03-28T18:35:00.216Z,92.41
2023-03-28T18:37:05.279Z,92.53
2023-03-28T18:39:10.500Z,91.68
2023-03-28T18:41:16.382Z,92.48
2023-03-28T18:43:21.656Z,92.07
2023-03-28T18:45:25.815Z,92.17
2023-03-28T18:47:30.437Z,91.92
2023-03-28T18:49:34.967Z,92.58
2023-03-28T18:51:42.841Z,92.45
2023-03-28T18:53:47.389Z,92.75
2023-03-28T18:55:52.614Z,92.52
2023-03-28T18:57:57.391Z,92.73
2023-03-28T19:00:01.541Z,92.35
2023-03-28T19:02:05.450Z,93.04
2023-03-28T19:04:09.741Z,93.14
2023-03-28T19:06:15.538Z,93.21
2023-03-28T19:08:22.314Z,93.44
2023-03-28T19:10:26.419Z,93.19
2023-03-28T19:12:30.156Z,92.83
2023-03-28T19:14:33.947Z,93.26
2023-03-28T19:16:37.566Z,94.26
2023-03-28T19:18:42.979Z,94.30
2023-03-28T19:20:51.352Z,94.62
2023-03-28T19:22:55.157Z,94.34
2023-03-28T19:25:01.392Z,94.59
2023-03-28T19:27:06.763Z,94.46
2023-03-28T19:29:11.084Z,94.65
2023-03-28T19:31:18.079Z,95.42
2023-03-28T19:33:21.797Z,95.32
2023-03-28T19:35:25.593Z,95.22
2023-03-28T19:37:29.409Z,95.01
2023-03-28T19:39:33.393Z,95.76
2023-03-28T19:41:38.621Z,95.41
2023-03-28T19:43:42.280Z,95.66
2023-03-28T19:45:46.384Z,95.40
2023-03-28T19:47:50.265Z,94.79
2023-03-28T19:49:54.014Z,94.87
2023-03-28T19:51:59.354Z,94.64
2023-03-28T19:54:03.476Z,94.69
2023-03-28T19:56:08.035Z,95.69
2023-03-28T19:58:13.419Z,95.31
2023-03-28T20:00:20.466Z,95.43
2023-03-28T20:02:24.480Z,94.80
2023-03-28T20:04:29.084Z,95.25
2023-03-28T20:06:33.654Z,95.30
2023-03-28T20:08:37.611Z,94.91
2023-03-28T20:10:42.291Z,94.91
2023-03-28T20:12:46.224Z,95.09
2023-03-28T20:14:51.865Z,95.51
2023-03-28T20:16:55.770Z,95.19
2023-03-28T20:18:59.905Z,95.61
2023-03-28T20:21:06.220Z,95.19
2023-03-28T20:23:11.901Z,95.01
2023-03-28T20:25:16.369Z,95.02
2023-03-28T20:27:20.652Z,94.78
2023-03-28T20:29:25.233Z,94.90
2023-03-28T20:31:31.140Z,94.73
2023-03-28T20:33:36.527Z,94.86
2023-03-28T20:35:42.108Z,95.00
2023-03-28T20:37:46.258Z,94.75
2023-03-28T20:39:52.232Z,95.09
2023-03-28T20:41:56.932Z,94.87
2023-03-28T20:44:04.001Z,94.89
2023-03-28T20:46:09.982Z,95.51
2023-03-28T20:48:17.706Z,94.93
2023-03-28T20:50:22.084Z,94.68
2023-03-28T20:52:26.893Z,95.17
2023-03-28T20:54:31.866Z,94.93
2023-03-28T20:56:36.852Z,94.99
2023-03-28T20:58:43.071Z,94.88
2023-03-28T21:00:49.665Z,95.37
2023-03-28T21:02:55.697Z,94.95
2023-03-28T21:05:02.718Z,94.65
2023-03-28T21:07:06.770Z,95.02
2023-03-28T21:09:14.639Z,94.98
2023-03-28T21:11:20.414Z,94.42
2023-03-28T21:13:24.526Z,94.32
2023-03-28T21:15:29.386Z,94.32
2023-03-28T21:17:33.920Z,94.45
2023-03-28T21:19:37.749Z,93.94
2023-03-28T21:21:43.583Z,93.66
2023-03-28T21:23:48.408Z,93.58
2023-03-28T21:25:53.937Z,93.99
2023-03-28T21:27:58.984Z,93.67
2023-03-28T21:30:08.011Z,93.93
2023-03-28T21:32:13.737Z,93.80
2023-03-28T21:34:18.165Z,93.83
2023-03-28T21:36:22.287Z,93.68
2023-03-28T21:38:27.917Z,93.50
2023-03-28T21:40:31.645Z,93.79
2023-03-28T21:42:35.232Z,94.20
2023-03-28T21:44:39.167Z,94.21
2023-03-28T21:46:43.187Z,94.03
2023-03-28T21:48:48.464Z,93.85
2023-03-28T21:50:54.712Z,94.03
2023-03-28T21:52:59.092Z,94.08
2023-03-28T21:55:04.664Z,94.16
2023-03-28T21:57:08.673Z,94.46
2023-03-28T21:59:12.569Z,94.01
2023-03-28T22:01:18.746Z,94.02
2023-03-28T22:03:23.548Z,94.23
2023-03-28T22:05:29.522Z,94.04
2023-03-28T22:07:34.253Z,94.19
2023-03-28T22:09:39.559Z,94.12
2023-03-28T22:11:46.343Z,93.64
2023-03-28T22:13:50.022Z,93.50
2023-03-28T22:15:58.191Z,93.32
2023-03-28T22:18:04.774Z,93.27
2023-03-28T22:20:09.529Z,92.83
2023-03-28T22:22:13.382Z,92.42
2023-03-28T22:24:17.632Z,92.40
2023-03-28T22:26:21.605Z,92.66
2023-03-28T22:28:26.921Z,92.39
2023-03-28T22:30:30.575Z,92.70
2023-03-28T22:32:34.266Z,92.66
2023-03-28T22:34:38.207Z,92.54
2023-03-28T22:36:42.640Z,92.56
2023-03-28T22:38:46.890Z,92.73
2023-03-28T22:40:51.096Z,92.29
2023-03-28T22:42:55.234Z,92.57
2023-03-28T22:45:00.379Z,92.49
2023-03-28T22:47:04.385Z,92.55
2023-03-28T22:49:09.353Z,92.61
2023-03-28T22:51:14.410Z,92.73
2023-03-28T22:53:20.333Z,92.54
2023-03-28T22:55:25.554Z,92.80
2023-03-28T22:57:29.370Z,92.73
2023-03-28T22:59:33.377Z,93.06
2023-03-28T23:01:38.708Z,93.03
2023-03-28T23:03:42.508Z,92.76
2023-03-28T23:05:46.289Z,92.73
2023-03-28T23:07:50.836Z,92.83
2023-03-28T23:09:54.599Z,93.38
2023-03-28T23:11:58.378Z,93.32
2023-03-28T23:14:03.575Z,93.11
2023-03-28T23:16:07.984Z,93.43
2023-03-28T23:18:13.066Z,93.24
2023-03-28T23:20:17.294Z,93.36
2023-03-28T23:22:21.876Z,93.78
2023-03-28T23:24:26.619Z,93.91
2023-03-28T23:26:30.314Z,94.02
2023-03-28T23:28:33.841Z,94.25
2023-03-28T23:30:39.393Z,94.36
2023-03-28T23:32:43.502Z,94.45
2023-03-28T23:34:49.308Z,94.42
2023-03-28T23:36:57.367Z,94.74
2023-03-28T23:39:01.148Z,94.63
2023-03-28T23:41:04.794Z,94.59
2023-03-28T23:43:09.106Z,94.89
2023-03-28T23:45:13.388Z,94.53
2023-03-28T23:47:17.167Z,94.70
2023-03-28T23:49:20.948Z,94.79
2023-03-28T23:51:26.305Z,94.61
2023-03-28T23:53:30.210Z,94.50
2023-03-28T23:55:34.821Z,94.70
2023-03-28T23:57:38.348Z,94.99
2023-03-28T23:59:42.368Z,94.84
